sensor_id;sensor_type;location;lat;lon;timestamp;P1;durP1;ratioP1;P2;durP2;ratioP2
8050;SDS011;4068;42.158;24.732;2023-10-31T00:00:43;21.77;;;9.95;;
8050;SDS011;4068;42.158;24.732;2023-10-31T00:03:08;21.15;;;10.63;;
8050;SDS011;4068;42.158;24.732;2023-10-31T00:05:35;18.08;;;10.43;;
8050;SDS011;4068;42.158;24.732;2023-10-31T00:08:01;17.63;;;9.57;;
8050;SDS011;4068;42.158;24.732;2023-10-31T00:10:26;16.98;;;9.75;;
8050;SDS011;4068;42.158;24.732;2023-10-31T00:12:51;17.27;;;10.32;;
8050;SDS011;4068;42.158;24.732;2023-10-31T00:15:17;20.02;;;12.35;;
8050;SDS011;4068;42.158;24.732;2023-10-31T00:17:42;21.00;;;12.25;;
8050;SDS011;4068;42.158;24.732;2023-10-31T00:20:08;20.58;;;10.85;;
8050;SDS011;4068;42.158;24.732;2023-10-31T00:22:33;19.63;;;10.60;;
8050;SDS011;4068;42.158;24.732;2023-10-31T00:24:59;14.18;;;9.93;;
8050;SDS011;4068;42.158;24.732;2023-10-31T00:27:24;15.02;;;8.90;;
8050;SDS011;4068;42.158;24.732;2023-10-31T00:29:50;15.77;;;10.10;;
8050;SDS011;4068;42.158;24.732;2023-10-31T00:32:15;17.15;;;10.38;;
8050;SDS011;4068;42.158;24.732;2023-10-31T00:34:40;24.27;;;10.45;;
8050;SDS011;4068;42.158;24.732;2023-10-31T00:37:06;17.23;;;10.30;;
8050;SDS011;4068;42.158;24.732;2023-10-31T00:39:31;17.95;;;9.98;;
8050;SDS011;4068;42.158;24.732;2023-10-31T00:41:58;20.00;;;10.73;;
8050;SDS011;4068;42.158;24.732;2023-10-31T00:44:24;17.58;;;10.57;;
8050;SDS011;4068;42.158;24.732;2023-10-31T00:46:49;16.70;;;10.07;;
8050;SDS011;4068;42.158;24.732;2023-10-31T00:49:15;16.73;;;10.90;;
8050;SDS011;4068;42.158;24.732;2023-10-31T00:51:40;20.35;;;9.95;;
8050;SDS011;4068;42.158;24.732;2023-10-31T00:54:05;14.80;;;9.70;;
8050;SDS011;4068;42.158;24.732;2023-10-31T00:56:31;17.75;;;9.88;;
8050;SDS011;4068;42.158;24.732;2023-10-31T00:58:56;19.38;;;10.05;;
8050;SDS011;4068;42.158;24.732;2023-10-31T01:01:22;16.63;;;9.27;;
8050;SDS011;4068;42.158;24.732;2023-10-31T01:03:47;16.77;;;9.90;;
8050;SDS011;4068;42.158;24.732;2023-10-31T01:06:12;14.23;;;9.55;;
8050;SDS011;4068;42.158;24.732;2023-10-31T01:08:38;17.00;;;9.55;;
8050;SDS011;4068;42.158;24.732;2023-10-31T01:11:03;16.15;;;9.13;;
8050;SDS011;4068;42.158;24.732;2023-10-31T01:13:28;14.93;;;8.40;;
8050;SDS011;4068;42.158;24.732;2023-10-31T01:15:55;18.67;;;10.40;;
8050;SDS011;4068;42.158;24.732;2023-10-31T01:18:20;17.10;;;9.98;;
8050;SDS011;4068;42.158;24.732;2023-10-31T01:20:46;17.67;;;9.50;;
8050;SDS011;4068;42.158;24.732;2023-10-31T01:23:11;17.98;;;9.27;;
8050;SDS011;4068;42.158;24.732;2023-10-31T01:25:37;16.55;;;9.52;;
8050;SDS011;4068;42.158;24.732;2023-10-31T01:28:02;16.98;;;9.75;;
8050;SDS011;4068;42.158;24.732;2023-10-31T01:30:27;18.92;;;9.93;;
8050;SDS011;4068;42.158;24.732;2023-10-31T01:32:53;18.90;;;10.15;;
8050;SDS011;4068;42.158;24.732;2023-10-31T01:35:18;20.10;;;9.88;;
8050;SDS011;4068;42.158;24.732;2023-10-31T01:37:44;18.13;;;9.70;;
8050;SDS011;4068;42.158;24.732;2023-10-31T01:40:12;11.80;;;9.05;;
8050;SDS011;4068;42.158;24.732;2023-10-31T01:42:38;13.93;;;9.13;;
8050;SDS011;4068;42.158;24.732;2023-10-31T01:45:03;22.50;;;10.68;;
8050;SDS011;4068;42.158;24.732;2023-10-31T01:47:29;20.85;;;10.02;;
8050;SDS011;4068;42.158;24.732;2023-10-31T01:49:54;18.15;;;9.43;;
8050;SDS011;4068;42.158;24.732;2023-10-31T01:52:20;19.20;;;9.88;;
8050;SDS011;4068;42.158;24.732;2023-10-31T01:54:46;18.27;;;9.77;;
8050;SDS011;4068;42.158;24.732;2023-10-31T01:57:12;25.48;;;10.40;;
8050;SDS011;4068;42.158;24.732;2023-10-31T01:59:39;17.85;;;10.25;;
8050;SDS011;4068;42.158;24.732;2023-10-31T02:02:04;16.02;;;10.25;;
8050;SDS011;4068;42.158;24.732;2023-10-31T02:04:31;19.92;;;9.98;;
8050;SDS011;4068;42.158;24.732;2023-10-31T02:06:56;14.63;;;10.27;;
8050;SDS011;4068;42.158;24.732;2023-10-31T02:09:22;20.42;;;10.73;;
8050;SDS011;4068;42.158;24.732;2023-10-31T02:11:49;14.98;;;9.70;;
8050;SDS011;4068;42.158;24.732;2023-10-31T02:14:15;15.27;;;9.50;;
8050;SDS011;4068;42.158;24.732;2023-10-31T02:16:40;15.98;;;10.65;;
8050;SDS011;4068;42.158;24.732;2023-10-31T02:19:06;15.25;;;9.82;;
8050;SDS011;4068;42.158;24.732;2023-10-31T02:21:32;17.50;;;9.50;;
8050;SDS011;4068;42.158;24.732;2023-10-31T02:24:01;25.38;;;10.70;;
8050;SDS011;4068;42.158;24.732;2023-10-31T02:26:28;19.60;;;10.57;;
8050;SDS011;4068;42.158;24.732;2023-10-31T02:28:57;25.58;;;11.30;;
8050;SDS011;4068;42.158;24.732;2023-10-31T02:31:23;18.60;;;10.32;;
8050;SDS011;4068;42.158;24.732;2023-10-31T02:33:49;20.98;;;10.38;;
8050;SDS011;4068;42.158;24.732;2023-10-31T02:36:14;15.35;;;11.07;;
8050;SDS011;4068;42.158;24.732;2023-10-31T02:38:39;17.85;;;11.07;;
8050;SDS011;4068;42.158;24.732;2023-10-31T02:41:05;20.27;;;10.50;;
8050;SDS011;4068;42.158;24.732;2023-10-31T02:43:30;23.70;;;10.95;;
8050;SDS011;4068;42.158;24.732;2023-10-31T02:45:56;18.55;;;10.90;;
8050;SDS011;4068;42.158;24.732;2023-10-31T02:48:21;17.83;;;10.90;;
8050;SDS011;4068;42.158;24.732;2023-10-31T02:50:46;22.67;;;11.07;;
8050;SDS011;4068;42.158;24.732;2023-10-31T02:53:12;19.92;;;10.98;;
8050;SDS011;4068;42.158;24.732;2023-10-31T02:55:37;19.98;;;11.90;;
8050;SDS011;4068;42.158;24.732;2023-10-31T02:58:02;14.73;;;10.07;;
8050;SDS011;4068;42.158;24.732;2023-10-31T03:00:28;17.67;;;11.00;;
8050;SDS011;4068;42.158;24.732;2023-10-31T03:02:53;23.67;;;12.07;;
8050;SDS011;4068;42.158;24.732;2023-10-31T03:05:19;21.30;;;11.18;;
8050;SDS011;4068;42.158;24.732;2023-10-31T03:07:44;20.77;;;10.90;;
8050;SDS011;4068;42.158;24.732;2023-10-31T03:10:10;21.30;;;10.98;;
8050;SDS011;4068;42.158;24.732;2023-10-31T03:12:35;19.52;;;10.75;;
8050;SDS011;4068;42.158;24.732;2023-10-31T03:15:02;17.73;;;10.73;;
8050;SDS011;4068;42.158;24.732;2023-10-31T03:17:28;25.23;;;11.13;;
8050;SDS011;4068;42.158;24.732;2023-10-31T03:19:54;18.08;;;10.95;;
8050;SDS011;4068;42.158;24.732;2023-10-31T03:22:20;17.55;;;11.27;;
8050;SDS011;4068;42.158;24.732;2023-10-31T03:24:46;18.98;;;11.90;;
8050;SDS011;4068;42.158;24.732;2023-10-31T03:27:11;15.57;;;10.82;;
8050;SDS011;4068;42.158;24.732;2023-10-31T03:29:36;22.15;;;11.25;;
8050;SDS011;4068;42.158;24.732;2023-10-31T03:32:02;14.73;;;10.75;;
8050;SDS011;4068;42.158;24.732;2023-10-31T03:34:27;23.35;;;11.38;;
8050;SDS011;4068;42.158;24.732;2023-10-31T03:36:53;18.13;;;11.75;;
8050;SDS011;4068;42.158;24.732;2023-10-31T03:39:18;24.35;;;11.45;;
8050;SDS011;4068;42.158;24.732;2023-10-31T03:41:43;18.33;;;11.10;;
8050;SDS011;4068;42.158;24.732;2023-10-31T03:44:09;22.48;;;12.43;;
8050;SDS011;4068;42.158;24.732;2023-10-31T03:46:35;22.98;;;11.95;;
8050;SDS011;4068;42.158;24.732;2023-10-31T03:49:00;22.30;;;11.90;;
8050;SDS011;4068;42.158;24.732;2023-10-31T03:51:25;20.73;;;12.52;;
8050;SDS011;4068;42.158;24.732;2023-10-31T03:53:51;22.60;;;11.00;;
8050;SDS011;4068;42.158;24.732;2023-10-31T03:56:16;21.50;;;12.50;;
8050;SDS011;4068;42.158;24.732;2023-10-31T03:58:42;26.02;;;12.05;;
8050;SDS011;4068;42.158;24.732;2023-10-31T04:01:08;21.83;;;11.68;;
8050;SDS011;4068;42.158;24.732;2023-10-31T04:03:34;17.67;;;11.23;;
8050;SDS011;4068;42.158;24.732;2023-10-31T04:05:59;21.00;;;11.68;;
8050;SDS011;4068;42.158;24.732;2023-10-31T04:08:25;28.80;;;12.50;;
8050;SDS011;4068;42.158;24.732;2023-10-31T04:10:50;24.35;;;12.40;;
8050;SDS011;4068;42.158;24.732;2023-10-31T04:13:16;19.98;;;11.80;;
8050;SDS011;4068;42.158;24.732;2023-10-31T04:15:41;22.33;;;11.90;;
8050;SDS011;4068;42.158;24.732;2023-10-31T04:18:06;18.80;;;11.73;;
8050;SDS011;4068;42.158;24.732;2023-10-31T04:20:32;20.63;;;12.82;;
8050;SDS011;4068;42.158;24.732;2023-10-31T04:22:57;21.10;;;13.45;;
8050;SDS011;4068;42.158;24.732;2023-10-31T04:25:23;20.95;;;11.75;;
8050;SDS011;4068;42.158;24.732;2023-10-31T04:27:49;22.65;;;12.00;;
8050;SDS011;4068;42.158;24.732;2023-10-31T04:30:15;25.90;;;13.02;;
8050;SDS011;4068;42.158;24.732;2023-10-31T04:32:40;19.52;;;12.93;;
8050;SDS011;4068;42.158;24.732;2023-10-31T04:35:06;29.08;;;13.18;;
8050;SDS011;4068;42.158;24.732;2023-10-31T04:37:31;23.60;;;11.60;;
8050;SDS011;4068;42.158;24.732;2023-10-31T04:39:57;24.17;;;13.43;;
8050;SDS011;4068;42.158;24.732;2023-10-31T04:42:22;23.05;;;12.18;;
8050;SDS011;4068;42.158;24.732;2023-10-31T04:44:48;22.25;;;11.90;;
8050;SDS011;4068;42.158;24.732;2023-10-31T04:47:13;20.40;;;12.15;;
8050;SDS011;4068;42.158;24.732;2023-10-31T04:49:39;23.08;;;12.93;;
8050;SDS011;4068;42.158;24.732;2023-10-31T04:52:04;22.77;;;12.02;;
8050;SDS011;4068;42.158;24.732;2023-10-31T04:54:30;17.70;;;11.20;;
8050;SDS011;4068;42.158;24.732;2023-10-31T04:56:55;20.25;;;11.57;;
8050;SDS011;4068;42.158;24.732;2023-10-31T04:59:20;21.02;;;12.52;;
8050;SDS011;4068;42.158;24.732;2023-10-31T05:01:49;30.25;;;13.15;;
8050;SDS011;4068;42.158;24.732;2023-10-31T05:04:16;31.83;;;13.35;;
8050;SDS011;4068;42.158;24.732;2023-10-31T05:06:42;23.02;;;12.30;;
8050;SDS011;4068;42.158;24.732;2023-10-31T05:09:07;28.02;;;13.45;;
8050;SDS011;4068;42.158;24.732;2023-10-31T05:11:33;27.05;;;13.82;;
8050;SDS011;4068;42.158;24.732;2023-10-31T05:13:58;24.83;;;13.88;;
8050;SDS011;4068;42.158;24.732;2023-10-31T05:16:24;26.38;;;14.15;;
8050;SDS011;4068;42.158;24.732;2023-10-31T05:18:50;38.72;;;16.45;;
8050;SDS011;4068;42.158;24.732;2023-10-31T05:21:19;26.48;;;14.23;;
8050;SDS011;4068;42.158;24.732;2023-10-31T05:23:48;22.52;;;13.80;;
8050;SDS011;4068;42.158;24.732;2023-10-31T05:26:14;28.80;;;13.32;;
8050;SDS011;4068;42.158;24.732;2023-10-31T05:28:39;24.42;;;14.43;;
8050;SDS011;4068;42.158;24.732;2023-10-31T05:31:05;32.17;;;13.75;;
8050;SDS011;4068;42.158;24.732;2023-10-31T05:33:30;20.88;;;13.35;;
8050;SDS011;4068;42.158;24.732;2023-10-31T05:35:55;24.48;;;13.38;;
8050;SDS011;4068;42.158;24.732;2023-10-31T05:38:21;22.92;;;13.07;;
8050;SDS011;4068;42.158;24.732;2023-10-31T05:40:46;23.20;;;13.15;;
8050;SDS011;4068;42.158;24.732;2023-10-31T05:43:12;23.83;;;12.95;;
8050;SDS011;4068;42.158;24.732;2023-10-31T05:45:37;36.72;;;14.35;;
8050;SDS011;4068;42.158;24.732;2023-10-31T05:48:02;24.60;;;12.93;;
8050;SDS011;4068;42.158;24.732;2023-10-31T05:50:28;20.10;;;12.70;;
8050;SDS011;4068;42.158;24.732;2023-10-31T05:52:54;22.35;;;12.77;;
8050;SDS011;4068;42.158;24.732;2023-10-31T05:55:19;24.15;;;13.48;;
8050;SDS011;4068;42.158;24.732;2023-10-31T05:57:45;26.33;;;16.88;;
8050;SDS011;4068;42.158;24.732;2023-10-31T06:00:10;17.27;;;12.02;;
8050;SDS011;4068;42.158;24.732;2023-10-31T06:02:36;21.58;;;13.15;;
8050;SDS011;4068;42.158;24.732;2023-10-31T06:05:01;20.92;;;12.90;;
8050;SDS011;4068;42.158;24.732;2023-10-31T06:07:27;25.65;;;12.75;;
8050;SDS011;4068;42.158;24.732;2023-10-31T06:09:52;19.00;;;12.48;;
8050;SDS011;4068;42.158;24.732;2023-10-31T06:12:17;23.85;;;12.35;;
8050;SDS011;4068;42.158;24.732;2023-10-31T06:14:43;20.65;;;12.02;;
8050;SDS011;4068;42.158;24.732;2023-10-31T06:17:08;24.08;;;12.35;;
8050;SDS011;4068;42.158;24.732;2023-10-31T06:19:37;19.42;;;11.80;;
8050;SDS011;4068;42.158;24.732;2023-10-31T06:22:03;18.88;;;12.05;;
8050;SDS011;4068;42.158;24.732;2023-10-31T06:24:28;24.80;;;12.20;;
8050;SDS011;4068;42.158;24.732;2023-10-31T06:26:54;22.40;;;12.32;;
8050;SDS011;4068;42.158;24.732;2023-10-31T06:29:19;20.80;;;11.43;;
8050;SDS011;4068;42.158;24.732;2023-10-31T06:31:45;17.45;;;11.52;;
8050;SDS011;4068;42.158;24.732;2023-10-31T06:34:10;22.58;;;12.20;;
8050;SDS011;4068;42.158;24.732;2023-10-31T06:36:35;22.08;;;11.68;;
8050;SDS011;4068;42.158;24.732;2023-10-31T06:39:01;19.48;;;12.05;;
8050;SDS011;4068;42.158;24.732;2023-10-31T06:41:27;23.90;;;12.05;;
8050;SDS011;4068;42.158;24.732;2023-10-31T06:43:52;31.75;;;13.18;;
8050;SDS011;4068;42.158;24.732;2023-10-31T06:46:18;17.92;;;11.55;;
8050;SDS011;4068;42.158;24.732;2023-10-31T06:48:43;21.48;;;12.00;;
8050;SDS011;4068;42.158;24.732;2023-10-31T06:51:09;16.88;;;11.38;;
8050;SDS011;4068;42.158;24.732;2023-10-31T06:53:34;24.67;;;11.57;;
8050;SDS011;4068;42.158;24.732;2023-10-31T06:56:00;16.23;;;11.13;;
8050;SDS011;4068;42.158;24.732;2023-10-31T06:58:25;19.10;;;11.55;;
8050;SDS011;4068;42.158;24.732;2023-10-31T07:00:50;23.15;;;11.32;;
8050;SDS011;4068;42.158;24.732;2023-10-31T07:03:16;21.73;;;11.05;;
8050;SDS011;4068;42.158;24.732;2023-10-31T07:05:42;22.40;;;13.00;;
8050;SDS011;4068;42.158;24.732;2023-10-31T07:08:07;25.67;;;12.95;;
8050;SDS011;4068;42.158;24.732;2023-10-31T07:10:33;37.58;;;12.20;;
8050;SDS011;4068;42.158;24.732;2023-10-31T07:12:59;21.55;;;10.52;;
8050;SDS011;4068;42.158;24.732;2023-10-31T07:15:25;24.02;;;11.27;;
8050;SDS011;4068;42.158;24.732;2023-10-31T07:17:50;22.20;;;10.20;;
8050;SDS011;4068;42.158;24.732;2023-10-31T07:20:16;20.52;;;10.50;;
8050;SDS011;4068;42.158;24.732;2023-10-31T07:22:42;24.33;;;10.43;;
8050;SDS011;4068;42.158;24.732;2023-10-31T07:25:07;28.17;;;11.32;;
8050;SDS011;4068;42.158;24.732;2023-10-31T07:27:33;24.63;;;11.55;;
8050;SDS011;4068;42.158;24.732;2023-10-31T07:29:58;26.60;;;11.63;;
8050;SDS011;4068;42.158;24.732;2023-10-31T07:32:24;25.83;;;10.63;;
8050;SDS011;4068;42.158;24.732;2023-10-31T07:34:50;18.30;;;11.30;;
8050;SDS011;4068;42.158;24.732;2023-10-31T07:37:16;28.00;;;10.60;;
8050;SDS011;4068;42.158;24.732;2023-10-31T07:39:41;18.55;;;10.43;;
8050;SDS011;4068;42.158;24.732;2023-10-31T07:42:07;25.27;;;11.02;;
8050;SDS011;4068;42.158;24.732;2023-10-31T07:44:33;23.20;;;11.10;;
8050;SDS011;4068;42.158;24.732;2023-10-31T07:46:59;22.38;;;10.43;;
8050;SDS011;4068;42.158;24.732;2023-10-31T07:49:24;16.02;;;9.68;;
8050;SDS011;4068;42.158;24.732;2023-10-31T07:51:49;27.00;;;10.63;;
8050;SDS011;4068;42.158;24.732;2023-10-31T07:54:15;17.65;;;9.27;;
8050;SDS011;4068;42.158;24.732;2023-10-31T07:56:41;23.13;;;9.05;;
8050;SDS011;4068;42.158;24.732;2023-10-31T07:59:06;20.23;;;9.40;;
8050;SDS011;4068;42.158;24.732;2023-10-31T08:01:33;20.10;;;9.20;;
8050;SDS011;4068;42.158;24.732;2023-10-31T08:03:59;17.92;;;9.20;;
8050;SDS011;4068;42.158;24.732;2023-10-31T08:06:24;14.02;;;8.95;;
8050;SDS011;4068;42.158;24.732;2023-10-31T08:08:50;16.85;;;8.07;;
8050;SDS011;4068;42.158;24.732;2023-10-31T08:11:15;17.95;;;8.63;;
8050;SDS011;4068;42.158;24.732;2023-10-31T08:13:40;17.05;;;9.02;;
8050;SDS011;4068;42.158;24.732;2023-10-31T08:16:06;16.40;;;9.95;;
8050;SDS011;4068;42.158;24.732;2023-10-31T08:18:32;19.05;;;9.70;;
8050;SDS011;4068;42.158;24.732;2023-10-31T08:20:58;14.82;;;8.27;;
8050;SDS011;4068;42.158;24.732;2023-10-31T08:23:24;14.38;;;7.95;;
8050;SDS011;4068;42.158;24.732;2023-10-31T08:25:50;17.90;;;8.90;;
8050;SDS011;4068;42.158;24.732;2023-10-31T08:28:16;16.60;;;8.35;;
8050;SDS011;4068;42.158;24.732;2023-10-31T08:30:41;11.93;;;8.02;;
8050;SDS011;4068;42.158;24.732;2023-10-31T08:33:07;14.80;;;8.63;;
8050;SDS011;4068;42.158;24.732;2023-10-31T08:35:32;17.52;;;8.82;;
8050;SDS011;4068;42.158;24.732;2023-10-31T08:37:58;16.75;;;7.70;;
8050;SDS011;4068;42.158;24.732;2023-10-31T08:40:23;10.55;;;7.57;;
8050;SDS011;4068;42.158;24.732;2023-10-31T08:42:49;16.92;;;8.15;;
8050;SDS011;4068;42.158;24.732;2023-10-31T08:45:14;18.45;;;8.95;;
8050;SDS011;4068;42.158;24.732;2023-10-31T08:47:40;16.50;;;8.48;;
8050;SDS011;4068;42.158;24.732;2023-10-31T08:50:06;15.77;;;9.02;;
8050;SDS011;4068;42.158;24.732;2023-10-31T08:52:33;20.02;;;8.77;;
8050;SDS011;4068;42.158;24.732;2023-10-31T08:54:59;12.05;;;7.05;;
8050;SDS011;4068;42.158;24.732;2023-10-31T08:57:25;12.18;;;7.28;;
8050;SDS011;4068;42.158;24.732;2023-10-31T08:59:50;12.60;;;6.53;;
8050;SDS011;4068;42.158;24.732;2023-10-31T09:02:16;11.63;;;7.22;;
8050;SDS011;4068;42.158;24.732;2023-10-31T09:04:42;13.30;;;7.47;;
8050;SDS011;4068;42.158;24.732;2023-10-31T09:07:07;11.63;;;6.78;;
8050;SDS011;4068;42.158;24.732;2023-10-31T09:09:33;16.75;;;7.50;;
8050;SDS011;4068;42.158;24.732;2023-10-31T09:11:58;15.02;;;7.43;;
8050;SDS011;4068;42.158;24.732;2023-10-31T09:14:23;11.38;;;6.63;;
8050;SDS011;4068;42.158;24.732;2023-10-31T09:16:49;17.65;;;7.47;;
8050;SDS011;4068;42.158;24.732;2023-10-31T09:19:14;10.27;;;6.32;;
8050;SDS011;4068;42.158;24.732;2023-10-31T09:21:40;12.05;;;6.75;;
8050;SDS011;4068;42.158;24.732;2023-10-31T09:24:06;15.57;;;7.10;;
8050;SDS011;4068;42.158;24.732;2023-10-31T09:26:32;10.90;;;5.22;;
8050;SDS011;4068;42.158;24.732;2023-10-31T09:28:58;12.20;;;5.47;;
8050;SDS011;4068;42.158;24.732;2023-10-31T09:31:24;9.85;;;5.10;;
8050;SDS011;4068;42.158;24.732;2023-10-31T09:33:49;9.52;;;5.65;;
8050;SDS011;4068;42.158;24.732;2023-10-31T09:36:15;12.77;;;5.25;;
8050;SDS011;4068;42.158;24.732;2023-10-31T09:38:40;12.18;;;5.70;;
8050;SDS011;4068;42.158;24.732;2023-10-31T09:41:06;11.07;;;6.43;;
8050;SDS011;4068;42.158;24.732;2023-10-31T09:43:31;14.73;;;6.03;;
8050;SDS011;4068;42.158;24.732;2023-10-31T09:45:57;11.75;;;5.72;;
8050;SDS011;4068;42.158;24.732;2023-10-31T09:48:25;11.32;;;5.85;;
8050;SDS011;4068;42.158;24.732;2023-10-31T09:50:51;10.85;;;5.45;;
8050;SDS011;4068;42.158;24.732;2023-10-31T09:53:18;7.35;;;5.35;;
8050;SDS011;4068;42.158;24.732;2023-10-31T09:55:45;10.48;;;5.55;;
8050;SDS011;4068;42.158;24.732;2023-10-31T09:58:11;11.02;;;4.78;;
8050;SDS011;4068;42.158;24.732;2023-10-31T10:00:37;14.63;;;5.10;;
8050;SDS011;4068;42.158;24.732;2023-10-31T10:03:05;8.52;;;4.65;;
8050;SDS011;4068;42.158;24.732;2023-10-31T10:05:34;9.70;;;4.82;;
8050;SDS011;4068;42.158;24.732;2023-10-31T10:08:00;10.80;;;4.78;;
8050;SDS011;4068;42.158;24.732;2023-10-31T10:10:25;12.95;;;5.00;;
8050;SDS011;4068;42.158;24.732;2023-10-31T10:12:51;14.40;;;5.35;;
8050;SDS011;4068;42.158;24.732;2023-10-31T10:15:17;13.52;;;6.00;;
8050;SDS011;4068;42.158;24.732;2023-10-31T10:17:49;13.38;;;5.72;;
8050;SDS011;4068;42.158;24.732;2023-10-31T10:20:16;12.48;;;6.63;;
8050;SDS011;4068;42.158;24.732;2023-10-31T10:22:43;13.93;;;7.75;;
8050;SDS011;4068;42.158;24.732;2023-10-31T10:25:09;14.30;;;5.85;;
8050;SDS011;4068;42.158;24.732;2023-10-31T10:27:43;14.77;;;5.85;;
8050;SDS011;4068;42.158;24.732;2023-10-31T10:30:09;15.77;;;6.63;;
8050;SDS011;4068;42.158;24.732;2023-10-31T10:32:35;16.52;;;6.65;;
8050;SDS011;4068;42.158;24.732;2023-10-31T10:35:01;13.23;;;6.32;;
8050;SDS011;4068;42.158;24.732;2023-10-31T10:37:27;11.75;;;5.88;;
8050;SDS011;4068;42.158;24.732;2023-10-31T10:39:52;13.95;;;6.40;;
8050;SDS011;4068;42.158;24.732;2023-10-31T10:42:26;15.68;;;7.00;;
8050;SDS011;4068;42.158;24.732;2023-10-31T10:45:02;13.45;;;6.15;;
8050;SDS011;4068;42.158;24.732;2023-10-31T10:47:29;12.77;;;5.53;;
8050;SDS011;4068;42.158;24.732;2023-10-31T10:49:58;15.38;;;5.95;;
8050;SDS011;4068;42.158;24.732;2023-10-31T10:55:12;15.95;;;6.32;;
8050;SDS011;4068;42.158;24.732;2023-10-31T10:57:52;12.18;;;6.68;;
8050;SDS011;4068;42.158;24.732;2023-10-31T11:00:25;14.13;;;6.70;;
8050;SDS011;4068;42.158;24.732;2023-10-31T11:02:55;10.27;;;5.68;;
8050;SDS011;4068;42.158;24.732;2023-10-31T11:05:21;8.90;;;5.93;;
8050;SDS011;4068;42.158;24.732;2023-10-31T11:07:48;10.60;;;6.38;;
8050;SDS011;4068;42.158;24.732;2023-10-31T11:10:14;9.60;;;5.32;;
8050;SDS011;4068;42.158;24.732;2023-10-31T11:12:41;14.10;;;5.70;;
8050;SDS011;4068;42.158;24.732;2023-10-31T11:15:07;16.08;;;5.13;;
8050;SDS011;4068;42.158;24.732;2023-10-31T11:17:36;9.50;;;4.85;;
8050;SDS011;4068;42.158;24.732;2023-10-31T11:20:04;17.35;;;5.93;;
8050;SDS011;4068;42.158;24.732;2023-10-31T11:22:44;12.27;;;5.85;;
8050;SDS011;4068;42.158;24.732;2023-10-31T11:25:12;13.35;;;5.57;;
8050;SDS011;4068;42.158;24.732;2023-10-31T11:27:38;10.60;;;4.75;;
8050;SDS011;4068;42.158;24.732;2023-10-31T11:30:28;9.60;;;5.10;;
8050;SDS011;4068;42.158;24.732;2023-10-31T11:32:59;10.82;;;4.75;;
8050;SDS011;4068;42.158;24.732;2023-10-31T11:35:26;7.75;;;4.65;;
8050;SDS011;4068;42.158;24.732;2023-10-31T11:38:04;7.15;;;4.30;;
8050;SDS011;4068;42.158;24.732;2023-10-31T11:40:31;12.35;;;5.05;;
8050;SDS011;4068;42.158;24.732;2023-10-31T11:42:58;11.57;;;4.97;;
8050;SDS011;4068;42.158;24.732;2023-10-31T11:45:31;13.30;;;5.43;;
8050;SDS011;4068;42.158;24.732;2023-10-31T11:47:56;9.38;;;5.20;;
8050;SDS011;4068;42.158;24.732;2023-10-31T11:50:22;13.45;;;5.03;;
8050;SDS011;4068;42.158;24.732;2023-10-31T11:55:33;15.85;;;6.03;;
8050;SDS011;4068;42.158;24.732;2023-10-31T12:00:38;16.58;;;7.10;;
8050;SDS011;4068;42.158;24.732;2023-10-31T12:03:04;9.55;;;4.95;;
8050;SDS011;4068;42.158;24.732;2023-10-31T12:05:29;12.43;;;5.25;;
8050;SDS011;4068;42.158;24.732;2023-10-31T12:07:55;13.68;;;4.57;;
8050;SDS011;4068;42.158;24.732;2023-10-31T12:10:21;11.48;;;5.38;;
8050;SDS011;4068;42.158;24.732;2023-10-31T12:12:49;12.77;;;4.72;;
8050;SDS011;4068;42.158;24.732;2023-10-31T12:15:15;9.45;;;4.50;;
8050;SDS011;4068;42.158;24.732;2023-10-31T12:17:40;10.38;;;5.55;;
8050;SDS011;4068;42.158;24.732;2023-10-31T12:20:06;17.73;;;7.07;;
8050;SDS011;4068;42.158;24.732;2023-10-31T12:22:33;12.02;;;5.53;;
8050;SDS011;4068;42.158;24.732;2023-10-31T12:27:49;13.85;;;6.88;;
8050;SDS011;4068;42.158;24.732;2023-10-31T12:30:16;14.82;;;6.10;;
8050;SDS011;4068;42.158;24.732;2023-10-31T12:32:43;16.88;;;6.50;;
8050;SDS011;4068;42.158;24.732;2023-10-31T12:35:11;17.52;;;7.22;;
8050;SDS011;4068;42.158;24.732;2023-10-31T12:37:48;14.27;;;7.85;;
8050;SDS011;4068;42.158;24.732;2023-10-31T12:40:18;19.58;;;8.80;;
8050;SDS011;4068;42.158;24.732;2023-10-31T12:42:45;14.82;;;8.55;;
8050;SDS011;4068;42.158;24.732;2023-10-31T12:45:12;20.85;;;10.50;;
8050;SDS011;4068;42.158;24.732;2023-10-31T12:47:38;16.13;;;9.32;;
8050;SDS011;4068;42.158;24.732;2023-10-31T12:55:16;20.55;;;9.13;;
8050;SDS011;4068;42.158;24.732;2023-10-31T12:57:43;24.77;;;13.10;;
8050;SDS011;4068;42.158;24.732;2023-10-31T13:00:10;26.73;;;13.52;;
8050;SDS011;4068;42.158;24.732;2023-10-31T13:02:40;30.23;;;15.77;;
8050;SDS011;4068;42.158;24.732;2023-10-31T13:07:37;28.30;;;14.23;;
8050;SDS011;4068;42.158;24.732;2023-10-31T13:10:02;22.75;;;12.43;;
8050;SDS011;4068;42.158;24.732;2023-10-31T13:12:29;16.73;;;10.25;;
8050;SDS011;4068;42.158;24.732;2023-10-31T13:14:55;16.77;;;8.63;;
8050;SDS011;4068;42.158;24.732;2023-10-31T13:17:21;15.60;;;8.40;;
8050;SDS011;4068;42.158;24.732;2023-10-31T13:19:46;17.48;;;9.18;;
8050;SDS011;4068;42.158;24.732;2023-10-31T13:22:11;24.48;;;8.75;;
8050;SDS011;4068;42.158;24.732;2023-10-31T13:24:37;16.17;;;8.13;;
8050;SDS011;4068;42.158;24.732;2023-10-31T13:27:03;15.90;;;7.90;;
8050;SDS011;4068;42.158;24.732;2023-10-31T13:29:28;19.13;;;7.15;;
8050;SDS011;4068;42.158;24.732;2023-10-31T13:31:54;18.58;;;8.25;;
8050;SDS011;4068;42.158;24.732;2023-10-31T13:34:20;14.23;;;8.27;;
8050;SDS011;4068;42.158;24.732;2023-10-31T13:36:46;17.48;;;9.05;;
8050;SDS011;4068;42.158;24.732;2023-10-31T13:39:11;24.25;;;9.18;;
8050;SDS011;4068;42.158;24.732;2023-10-31T13:41:37;22.45;;;9.93;;
8050;SDS011;4068;42.158;24.732;2023-10-31T13:44:02;21.75;;;9.88;;
8050;SDS011;4068;42.158;24.732;2023-10-31T13:46:28;20.15;;;9.93;;
8050;SDS011;4068;42.158;24.732;2023-10-31T13:48:54;26.77;;;10.35;;
8050;SDS011;4068;42.158;24.732;2023-10-31T13:51:19;16.42;;;9.15;;
8050;SDS011;4068;42.158;24.732;2023-10-31T13:53:45;25.83;;;8.82;;
8050;SDS011;4068;42.158;24.732;2023-10-31T13:56:10;13.73;;;8.30;;
8050;SDS011;4068;42.158;24.732;2023-10-31T13:58:36;20.63;;;10.00;;
8050;SDS011;4068;42.158;24.732;2023-10-31T14:01:01;15.68;;;8.75;;
8050;SDS011;4068;42.158;24.732;2023-10-31T14:03:27;15.38;;;7.85;;
8050;SDS011;4068;42.158;24.732;2023-10-31T14:05:52;17.23;;;9.35;;
8050;SDS011;4068;42.158;24.732;2023-10-31T14:08:18;16.63;;;8.65;;
8050;SDS011;4068;42.158;24.732;2023-10-31T14:10:44;11.63;;;7.45;;
8050;SDS011;4068;42.158;24.732;2023-10-31T14:13:11;21.77;;;10.43;;
8050;SDS011;4068;42.158;24.732;2023-10-31T14:15:36;22.20;;;9.38;;
8050;SDS011;4068;42.158;24.732;2023-10-31T14:18:02;27.00;;;9.63;;
8050;SDS011;4068;42.158;24.732;2023-10-31T14:20:28;19.70;;;8.70;;
8050;SDS011;4068;42.158;24.732;2023-10-31T14:22:54;16.60;;;7.93;;
8050;SDS011;4068;42.158;24.732;2023-10-31T14:25:19;25.33;;;10.68;;
8050;SDS011;4068;42.158;24.732;2023-10-31T14:27:45;24.95;;;8.13;;
8050;SDS011;4068;42.158;24.732;2023-10-31T14:30:11;22.50;;;8.98;;
8050;SDS011;4068;42.158;24.732;2023-10-31T14:32:37;25.90;;;8.90;;
8050;SDS011;4068;42.158;24.732;2023-10-31T14:35:03;17.27;;;7.50;;
8050;SDS011;4068;42.158;24.732;2023-10-31T14:37:29;17.20;;;7.13;;
8050;SDS011;4068;42.158;24.732;2023-10-31T14:39:55;14.57;;;7.38;;
8050;SDS011;4068;42.158;24.732;2023-10-31T14:42:20;21.40;;;8.30;;
8050;SDS011;4068;42.158;24.732;2023-10-31T14:44:46;30.23;;;8.80;;
8050;SDS011;4068;42.158;24.732;2023-10-31T14:47:12;27.33;;;10.02;;
8050;SDS011;4068;42.158;24.732;2023-10-31T14:49:38;12.32;;;7.95;;
8050;SDS011;4068;42.158;24.732;2023-10-31T14:52:04;20.75;;;7.28;;